Time;durP1;ratioP1;P1;durP2;ratioP2;P2;SDS_P1;SDS_P2;PMS_P1;PMS_P2;Temp;Humidity;BMP_temperature;BMP_pressure;BME280_temperature;BME280_humidity;BME280_pressure;Samples;Min_cycle;Max_cycle;Signal;HPM_P1;HPM_P2
2022/04/20 00:02:10;;;;;;;2.20;1.60;;;;;;;5.08;76.64;100578.66;5055099;28;20178;-72
2022/04/20 00:04:35;;;;;;;1.97;1.60;;;;;;;5.01;76.99;100587.03;5072361;28;20284;-76
2022/04/20 00:07:01;;;;;;;1.10;1.10;;;;;;;5.00;76.67;100582.69;5072839;28;20183;-70
2022/04/20 00:09:26;;;;;;;1.70;1.60;;;;;;;5.02;77.02;100580.53;5078329;28;20562;-71
2022/04/20 00:11:52;;;;;;;1.40;1.30;;;;;;;5.08;77.30;100584.06;5082189;28;20174;-71
2022/04/20 00:14:17;;;;;;;1.93;1.40;;;;;;;5.12;76.94;100579.72;5073672;28;20258;-71
2022/04/20 00:16:42;;;;;;;2.50;1.37;;;;;;;5.06;76.98;100576.22;5073183;28;20174;-71
2022/04/20 00:19:08;;;;;;;2.03;1.83;;;;;;;4.94;77.11;100572.97;5072635;28;20179;-70
2022/04/20 00:21:33;;;;;;;2.30;1.90;;;;;;;4.86;77.37;100575.38;5072198;28;20630;-70
2022/04/20 00:23:58;;;;;;;1.67;1.37;;;;;;;4.78;77.21;100577.56;5072133;28;20269;-71
2022/04/20 00:26:23;;;;;;;2.37;1.47;;;;;;;4.68;78.08;100574.84;5072209;28;20749;-71
2022/04/20 00:28:49;;;;;;;1.83;1.40;;;;;;;4.58;78.69;100577.53;5072013;28;20179;-70
2022/04/20 00:31:14;;;;;;;2.97;1.70;;;;;;;4.58;78.97;100580.22;5072096;28;20652;-70
2022/04/20 00:33:39;;;;;;;1.77;1.40;;;;;;;4.64;79.18;100584.59;5071761;28;20663;-70
2022/04/20 00:36:05;;;;;;;1.97;1.57;;;;;;;4.68;79.16;100584.84;5071948;28;20194;-73
2022/04/20 00:38:31;;;;;;;1.43;1.33;;;;;;;4.76;79.06;100582.41;5071907;28;20167;-71
2022/04/20 00:40:56;;;;;;;2.43;1.70;;;;;;;4.84;78.50;100585.69;5053926;28;20204;-73
2022/04/20 00:43:22;;;;;;;2.43;1.30;;;;;;;4.86;78.20;100588.91;5071515;28;20275;-71
2022/04/20 00:45:49;;;;;;;2.37;1.60;;;;;;;4.82;78.47;100583.25;5071595;28;20402;-71
2022/04/20 00:48:15;;;;;;;1.60;1.50;;;;;;;4.78;78.13;100582.97;5071489;28;20214;-70
2022/04/20 00:50:44;;;;;;;2.10;1.50;;;;;;;4.81;78.57;100584.31;5071454;28;20174;-75
2022/04/20 00:53:09;;;;;;;2.47;1.57;;;;;;;4.88;78.85;100578.63;5071516;28;20175;-72
2022/04/20 00:55:35;;;;;;;2.10;1.93;;;;;;;4.94;78.99;100585.69;5071527;28;20177;-71
2022/04/20 00:58:00;;;;;;;3.40;1.70;;;;;;;5.04;78.87;100585.66;5071147;28;20174;-70
2022/04/20 01:00:27;;;;;;;1.93;1.60;;;;;;;5.14;78.44;100585.69;5071255;28;20592;-72
2022/04/20 01:02:53;;;;;;;2.37;1.50;;;;;;;5.22;78.05;100584.34;5071367;28;20270;-71
2022/04/20 01:05:19;;;;;;;1.30;1.20;;;;;;;5.22;77.88;100587.03;5071176;28;20661;-74
2022/04/20 01:07:45;;;;;;;1.60;1.50;;;;;;;5.16;77.46;100588.91;5071026;28;20166;-71
2022/04/20 01:10:10;;;;;;;1.90;1.70;;;;;;;5.10;77.33;100590.00;5071097;28;20170;-71
2022/04/20 01:12:36;;;;;;;2.20;1.50;;;;;;;4.96;77.49;100586.22;5071077;28;20174;-72
2022/04/20 01:15:02;;;;;;;2.43;1.70;;;;;;;4.92;78.14;100593.25;5070973;28;20752;-71
2022/04/20 01:17:27;;;;;;;1.80;1.43;;;;;;;4.82;78.64;100587.84;5070914;28;20265;-71
2022/04/20 01:19:53;;;;;;;1.63;1.50;;;;;;;4.76;78.91;100593.22;5070961;28;20246;-71
2022/04/20 01:22:18;;;;;;;2.10;1.77;;;;;;;4.76;79.15;100589.72;5052908;28;20198;-72
2022/04/20 01:24:43;;;;;;;1.97;1.60;;;;;;;4.80;79.92;100593.53;5070852;28;20674;-70
2022/04/20 01:27:10;;;;;;;1.70;1.60;;;;;;;4.85;80.02;100584.59;5052664;28;20581;-74
2022/04/20 01:29:36;;;;;;;1.50;1.40;;;;;;;4.91;80.39;100591.63;5066778;28;20620;-72
2022/04/20 01:32:02;;;;;;;2.60;1.97;;;;;;;4.95;80.11;100584.59;5070663;28;20517;-71
2022/04/20 01:34:28;;;;;;;4.50;2.77;;;;;;;4.96;79.76;100580.81;5070779;28;20177;-74
2022/04/20 01:36:53;;;;;;;5.53;3.40;;;;;;;4.97;79.65;100579.72;5071025;28;20235;-70
2022/04/20 01:39:18;;;;;;;4.93;2.77;;;;;;;4.99;79.19;100585.69;5070473;28;20203;-70
2022/04/20 01:41:44;;;;;;;2.70;2.50;;;;;;;4.96;78.78;100573.50;5070814;28;20182;-71
2022/04/20 01:44:10;;;;;;;2.20;2.00;;;;;;;4.93;78.45;100571.34;5070742;28;20681;-71
2022/04/20 01:46:35;;;;;;;2.90;2.13;;;;;;;4.92;78.75;100577.00;5070545;28;20322;-71
2022/04/20 01:49:01;;;;;;;2.77;1.93;;;;;;;4.90;79.11;100568.34;5070571;28;20249;-72
2022/04/20 01:54:11;;;;;;;4.50;1.93;;;;;;;4.45;77.30;100576.13;5070987;28;20580;-71
2022/04/20 01:56:37;;;;;;;2.00;1.87;;;;;;;4.54;77.92;100578.34;5070529;28;20276;-71
2022/04/20 01:59:02;;;;;;;1.93;1.60;;;;;;;4.65;78.13;100574.56;5070437;28;20355;-72
2022/04/20 02:04:12;;;;;;;1.87;1.60;;;;;;;4.75;77.21;100583.50;5070862;28;20267;-73
2022/04/20 02:06:37;;;;;;;1.90;1.73;;;;;;;4.75;77.21;100582.69;5070428;28;20175;-71
2022/04/20 02:09:03;;;;;;;1.80;1.70;;;;;;;4.67;76.67;100577.81;5070498;28;20231;-74
2022/04/20 02:11:28;;;;;;;1.73;1.63;;;;;;;4.55;76.91;100575.34;5070338;28;20170;-72
2022/04/20 02:13:54;;;;;;;2.10;1.90;;;;;;;4.52;77.38;100585.91;5071064;28;20220;-71
2022/04/20 02:16:19;;;;;;;1.70;1.60;;;;;;;4.45;77.00;100578.03;5070472;28;20173;-74
2022/04/20 02:18:44;;;;;;;1.70;1.60;;;;;;;4.58;77.16;100585.63;5070519;28;20174;-72
2022/04/20 02:21:10;;;;;;;2.27;1.93;;;;;;;4.64;76.99;100586.47;5070439;28;20174;-73
2022/04/20 02:23:35;;;;;;;2.40;2.20;;;;;;;4.58;77.17;100576.72;5070218;28;20289;-72
2022/04/20 02:26:01;;;;;;;2.00;1.53;;;;;;;4.78;76.99;100584.88;5070335;28;20553;-71
2022/04/20 02:28:26;;;;;;;2.30;1.90;;;;;;;4.87;76.73;100582.41;5070216;28;20186;-71
2022/04/20 02:30:52;;;;;;;1.53;1.33;;;;;;;4.94;77.24;100589.22;5070070;28;20182;-70
2022/04/20 02:33:17;;;;;;;1.93;1.73;;;;;;;4.98;77.40;100581.34;5052236;28;20190;-74
2022/04/20 02:35:43;;;;;;;2.33;2.13;;;;;;;4.99;77.19;100572.13;5069999;28;20163;-71
2022/04/20 02:38:10;;;;;;;2.20;2.00;;;;;;;4.94;76.49;100583.78;5069819;28;20177;-73
2022/04/20 02:40:37;;;;;;;2.03;1.83;;;;;;;4.68;76.84;100572.13;5070172;28;20604;-71
2022/04/20 02:43:02;;;;;;;1.50;1.40;;;;;;;4.51;77.43;100568.06;5069925;28;20269;-73
2022/04/20 02:45:27;;;;;;;1.40;1.30;;;;;;;4.20;78.54;100564.47;5070213;28;20174;-71
2022/04/20 02:47:54;;;;;;;2.20;1.67;;;;;;;4.04;79.48;100571.69;5069966;28;20181;-73
2022/04/20 02:50:19;;;;;;;1.80;1.70;;;;;;;3.94;80.55;100571.66;5070403;28;20201;-74
2022/04/20 02:52:44;;;;;;;2.70;1.50;;;;;;;3.87;81.38;100575.41;5069968;28;20745;-70
2022/04/20 02:55:09;;;;;;;2.67;1.53;;;;;;;3.82;81.91;100570.00;5070084;28;20171;-71
2022/04/20 02:57:35;;;;;;;2.97;1.87;;;;;;;3.88;81.81;100571.63;5069879;28;20256;-73
2022/04/20 03:00:00;;;;;;;1.70;1.60;;;;;;;3.93;82.33;100570.03;5069903;28;20204;-72
2022/04/20 03:02:25;;;;;;;2.13;1.47;;;;;;;3.89;82.19;100569.75;5052525;28;20274;-71
2022/04/20 03:04:51;;;;;;;2.10;1.90;;;;;;;3.84;82.06;100569.72;5073355;28;20263;-70
2022/04/20 03:07:16;;;;;;;2.13;1.63;;;;;;;3.74;82.61;100572.38;5073392;28;20202;-71
2022/04/20 03:09:42;;;;;;;2.13;1.70;;;;;;;3.62;83.15;100569.91;5073739;28;20676;-70
2022/04/20 03:12:08;;;;;;;2.23;1.60;;;;;;;3.67;83.86;100574.50;5073468;28;20181;-71
2022/04/20 03:14:33;;;;;;;4.00;1.90;;;;;;;3.62;83.90;100577.16;5073411;28;20192;-73
2022/04/20 03:16:59;;;;;;;3.23;1.80;;;;;;;3.44;84.20;100581.94;5073086;28;20175;-73
2022/04/20 03:19:24;;;;;;;1.90;1.73;;;;;;;3.21;85.17;100582.34;5073019;28;20175;-70
2022/04/20 03:21:49;;;;;;;8.13;2.00;;;;;;;3.01;85.95;100588.38;5073270;28;20186;-71
2022/04/20 03:24:15;;;;;;;2.17;2.00;;;;;;;2.90;87.04;100586.69;5073047;28;20214;-73
2022/04/20 03:26:40;;;;;;;2.40;1.73;;;;;;;2.76;88.19;100588.16;5072961;28;20178;-75
2022/04/20 03:29:06;;;;;;;2.30;2.00;;;;;;;2.67;89.50;100585.94;5072993;28;20181;-71
2022/04/20 03:31:34;;;;;;;4.97;2.10;;;;;;;2.58;90.27;100583.94;5072970;28;20536;-73
2022/04/20 03:34:01;;;;;;;1.93;1.60;;;;;;;2.58;90.98;100584.75;5073085;28;20640;-74
2022/04/20 03:36:26;;;;;;;1.60;1.50;;;;;;;2.68;91.47;100584.03;5072875;28;20317;-70
2022/04/20 03:38:51;;;;;;;2.27;1.90;;;;;;;2.76;91.73;100588.16;5072530;28;20289;-74
2022/04/20 03:41:17;;;;;;;1.90;1.80;;;;;;;2.73;91.74;100584.06;5072888;28;20182;-70
2022/04/20 03:43:42;;;;;;;1.87;1.73;;;;;;;2.66;91.69;100591.59;5072633;28;20787;-73
2022/04/20 03:46:07;;;;;;;2.77;1.63;;;;;;;2.63;91.40;100587.50;5072961;28;20181;-73
2022/04/20 03:48:32;;;;;;;3.33;2.53;;;;;;;2.63;91.69;100597.50;5072677;28;20594;-73
2022/04/20 03:50:58;;;;;;;2.27;2.07;;;;;;;2.66;92.11;100597.78;5072724;28;20259;-71
2022/04/20 03:53:23;;;;;;;2.30;2.10;;;;;;;2.59;92.12;100597.16;5072544;28;20186;-79
2022/04/20 03:55:48;;;;;;;2.13;1.90;;;;;;;2.56;92.47;100594.16;5072712;28;20181;-71
2022/04/20 03:58:14;;;;;;;2.13;1.70;;;;;;;2.54;92.59;100593.63;5072239;28;20544;-74
2022/04/20 04:00:39;;;;;;;1.57;1.47;;;;;;;2.47;92.84;100593.81;5072385;28;20179;-73
2022/04/20 04:03:05;;;;;;;2.10;1.90;;;;;;;2.44;93.21;100593.50;5072373;28;20431;-74
2022/04/20 04:05:30;;;;;;;1.50;1.40;;;;;;;2.43;93.89;100595.38;5054430;28;20179;-71
2022/04/20 04:07:55;;;;;;;2.00;1.80;;;;;;;2.39;94.23;100596.97;5072255;28;20224;-73
2022/04/20 04:10:21;;;;;;;1.50;1.40;;;;;;;2.38;94.46;100603.44;5072640;28;20190;-73
2022/04/20 04:12:46;;;;;;;3.07;2.87;;;;;;;2.35;94.78;100602.06;5072501;28;20186;-69
2022/04/20 04:15:12;;;;;;;2.77;2.57;;;;;;;2.25;94.99;100601.94;5071897;28;20186;-72
2022/04/20 04:17:37;;;;;;;2.63;2.20;;;;;;;2.22;95.34;100602.44;5072074;28;20175;-71
2022/04/20 04:20:04;;;;;;;2.60;2.13;;;;;;;2.17;95.36;100604.25;5072212;28;20190;-71
2022/04/20 04:22:30;;;;;;;2.00;1.80;;;;;;;2.07;95.44;100605.78;5071950;28;20304;-74
2022/04/20 04:24:56;;;;;;;2.20;2.00;;;;;;;2.08;95.95;100599.31;5071916;28;20301;-75
2022/04/20 04:27:22;;;;;;;3.07;2.20;;;;;;;2.12;96.05;100607.72;5071751;28;20175;-72
2022/04/20 04:29:48;;;;;;;2.30;2.10;;;;;;;2.14;96.11;100600.19;5071877;28;20174;-73
2022/04/20 04:32:13;;;;;;;3.20;1.63;;;;;;;2.13;96.37;100597.75;5072196;28;20174;-72
2022/04/20 04:34:39;;;;;;;2.47;1.70;;;;;;;2.11;96.17;100599.88;5071981;28;20673;-69
2022/04/20 04:37:05;;;;;;;1.87;1.70;;;;;;;2.13;97.04;100603.94;5071533;28;20649;-74
2022/04/20 04:39:31;;;;;;;1.83;1.70;;;;;;;2.16;97.16;100606.13;5071444;28;20171;-76
2022/04/20 04:41:56;;;;;;;2.10;2.00;;;;;;;2.21;97.13;100600.81;5071457;28;20201;-74
2022/04/20 04:44:22;;;;;;;6.67;2.00;;;;;;;2.28;97.38;100600.59;5071640;28;20811;-73
2022/04/20 04:49:32;;;;;;;2.23;1.70;;;;;;;2.41;96.81;100592.13;5071891;28;20649;-78
2022/04/20 04:51:58;;;;;;;2.30;1.87;;;;;;;2.45;96.72;100592.44;5071510;28;20170;-72
2022/04/20 04:54:24;;;;;;;2.03;1.80;;;;;;;2.46;96.16;100594.91;5071498;28;20174;-74
2022/04/20 04:56:49;;;;;;;2.03;1.93;;;;;;;2.47;95.80;100610.00;5071405;28;20178;-76
2022/04/20 04:59:16;;;;;;;4.07;2.20;;;;;;;2.43;95.66;100606.16;5071297;28;20212;-79
2022/04/20 05:01:41;;;;;;;2.27;1.57;;;;;;;2.41;95.72;100607.50;5071311;28;20166;-70
2022/04/20 05:04:07;;;;;;;2.60;2.37;;;;;;;2.41;96.19;100607.50;5071280;28;20823;-75
2022/04/20 05:06:32;;;;;;;3.70;1.60;;;;;;;2.48;96.25;100616.22;5071290;28;20170;-74
2022/04/20 05:08:58;;;;;;;2.10;1.60;;;;;;;2.54;96.59;100617.88;5071077;28;20170;-71
2022/04/20 05:11:23;;;;;;;1.70;1.60;;;;;;;2.66;96.59;100621.25;5071333;28;20179;-77
2022/04/20 05:13:48;;;;;;;2.07;1.87;;;;;;;2.78;96.70;100615.69;5071564;28;20614;-73
2022/04/20 05:16:14;;;;;;;3.57;1.80;;;;;;;2.88;96.29;100613.88;5071271;28;20634;-80
2022/04/20 05:18:39;;;;;;;3.50;2.20;;;;;;;2.95;95.14;100619.91;5070740;28;20179;-71
2022/04/20 05:21:04;;;;;;;2.70;1.97;;;;;;;3.10;94.35;100618.41;5071055;28;20257;-76
2022/04/20 05:23:30;;;;;;;1.97;1.77;;;;;;;3.22;93.81;100619.06;5071153;28;20540;-72
2022/04/20 05:25:56;;;;;;;2.93;2.00;;;;;;;3.38;93.22;100628.88;5070555;28;20476;-72
2022/04/20 05:28:21;;;;;;;2.47;2.23;;;;;;;3.52;92.38;100618.44;5052938;28;20182;-71
2022/04/20 05:30:47;;;;;;;2.10;1.80;;;;;;;3.66;91.98;100616.13;5070896;28;20173;-71
2022/04/20 05:33:12;;;;;;;2.60;2.40;;;;;;;3.73;90.88;100622.91;5071048;28;20253;-70
2022/04/20 05:35:38;;;;;;;4.63;2.33;;;;;;;3.88;90.35;100625.69;5070897;28;20253;-71
2022/04/20 05:43:31;;;;;;;2.33;1.97;;;;;;;4.24;85.46;100636.66;5070536;28;20628;-74
2022/04/20 05:45:57;;;;;;;2.50;2.30;;;;;;;4.31;83.33;100639.94;5052789;28;20194;-71
2022/04/20 05:48:22;;;;;;;1.90;1.80;;;;;;;4.50;82.63;100643.00;5071030;28;20171;-72
2022/04/20 05:50:47;;;;;;;4.00;2.20;;;;;;;4.54;81.73;100648.69;5070707;28;20787;-75
2022/04/20 05:53:13;;;;;;;2.07;1.97;;;;;;;4.63;81.16;100653.31;5070668;28;20575;-75
2022/04/20 05:55:38;;;;;;;2.17;1.93;;;;;;;4.66;80.09;100655.47;5070659;28;20224;-74
2022/04/20 05:58:04;;;;;;;4.13;1.90;;;;;;;4.61;80.42;100668.16;5070571;28;20177;-75
2022/04/20 06:00:30;;;;;;;2.47;2.20;;;;;;;4.55;79.78;100656.53;5071001;28;20178;-75
2022/04/20 06:02:56;;;;;;;4.23;2.10;;;;;;;4.64;80.49;100654.13;5070763;28;20174;-73
2022/04/20 06:05:22;;;;;;;2.40;2.20;;;;;;;4.70;80.04;100653.84;5052396;28;20279;-79
2022/04/20 06:07:47;;;;;;;2.73;2.30;;;;;;;4.81;80.07;100649.28;5070318;28;20710;-70
2022/04/20 06:10:13;;;;;;;2.80;2.33;;;;;;;4.77;78.99;100645.47;5070580;28;20370;-80
2022/04/20 06:12:39;;;;;;;2.67;2.47;;;;;;;4.78;78.45;100652.53;5070672;28;20174;-70
2022/04/20 06:15:06;;;;;;;4.60;2.63;;;;;;;4.81;78.74;100651.19;5070503;28;20241;-70
2022/04/20 06:17:31;;;;;;;2.43;2.23;;;;;;;4.91;78.43;100651.19;5070561;28;20185;-73
2022/04/20 06:19:57;;;;;;;2.20;2.00;;;;;;;4.94;78.26;100653.38;5070590;28;20644;-76
2022/04/20 06:22:22;;;;;;;2.30;2.10;;;;;;;4.93;77.29;100647.16;5070605;28;20650;-74
2022/04/20 06:24:48;;;;;;;2.57;2.37;;;;;;;5.10;78.20;100655.00;5070213;28;20213;-76
2022/04/20 06:27:13;;;;;;;2.50;2.30;;;;;;;5.21;77.58;100656.66;5069917;28;20174;-79
2022/04/20 06:29:39;;;;;;;2.10;2.00;;;;;;;5.32;77.33;100644.69;5070099;28;20179;-71
2022/04/20 06:32:05;;;;;;;3.13;2.40;;;;;;;5.35;77.81;100646.91;5070226;28;20227;-75
2022/04/20 06:34:31;;;;;;;2.83;2.33;;;;;;;5.63;77.67;100650.09;5070353;28;20649;-74
2022/04/20 06:36:56;;;;;;;3.70;2.50;;;;;;;5.72;77.02;100645.75;5072130;28;20182;-74
2022/04/20 06:39:21;;;;;;;3.37;2.70;;;;;;;5.64;75.72;100641.72;5074215;28;20652;-76
2022/04/20 06:41:47;;;;;;;3.57;2.73;;;;;;;5.60;76.12;100639.81;5074177;28;20186;-77
2022/04/20 06:44:12;;;;;;;4.07;2.57;;;;;;;5.73;76.81;100646.56;5074179;28;20197;-72
2022/04/20 06:46:37;;;;;;;3.27;3.00;;;;;;;5.68;76.31;100644.69;5074400;28;20177;-74
2022/04/20 06:49:03;;;;;;;3.17;2.40;;;;;;;5.70;75.92;100652.53;5073894;28;20178;-72
2022/04/20 06:58:31;;;;;;;3.13;2.80;;;;;;;5.80;76.54;100645.22;5073991;28;20219;-73
2022/04/20 06:59:41;;;;;;;3.33;2.80;;;;;;;5.94;75.42;100634.63;5073776;28;20158;-74
2022/04/20 07:02:07;;;;;;;4.63;3.13;;;;;;;5.91;76.15;100638.69;5074003;28;20171;-73
2022/04/20 07:04:32;;;;;;;3.43;2.87;;;;;;;5.92;76.22;100637.59;5073389;28;20622;-70
2022/04/20 07:06:57;;;;;;;4.07;3.17;;;;;;;6.13;76.12;100632.94;5073752;28;20634;-73
2022/04/20 07:09:22;;;;;;;3.93;2.80;;;;;;;6.20;75.61;100638.84;5073842;28;20221;-74
2022/04/20 07:11:48;;;;;;;4.20;2.80;;;;;;;6.42;75.15;100635.78;5073786;28;20253;-75
2022/04/20 07:14:14;;;;;;;4.13;2.80;;;;;;;6.59;74.47;100635.44;5073913;28;20499;-77
2022/04/20 07:16:39;;;;;;;2.90;2.70;;;;;;;6.62;74.66;100628.63;5073720;28;20201;-71
2022/04/20 07:19:04;;;;;;;2.43;2.23;;;;;;;6.67;74.13;100626.72;5073919;28;20224;-72
2022/04/20 07:21:31;;;;;;;3.33;3.07;;;;;;;6.69;74.84;100627.22;5076474;28;20469;-73
2022/04/20 07:23:56;;;;;;;5.07;3.30;;;;;;;6.85;74.79;100633.38;5081261;28;20253;-71
2022/04/20 07:26:22;;;;;;;4.27;3.50;;;;;;;6.99;74.42;100626.22;5074764;28;20645;-71
2022/04/20 07:28:47;;;;;;;4.73;3.77;;;;;;;6.99;73.78;100625.41;5073631;28;20588;-70
2022/04/20 07:31:12;;;;;;;3.40;3.10;;;;;;;7.21;74.06;100624.94;5073589;28;20308;-70
2022/04/20 07:33:38;;;;;;;3.13;2.90;;;;;;;7.29;73.43;100627.88;5071758;28;20182;-70
2022/04/20 07:36:03;;;;;;;3.30;3.00;;;;;;;7.14;73.60;100633.44;5071596;28;20183;-70
2022/04/20 07:38:28;;;;;;;3.10;2.83;;;;;;;7.06;74.09;100623.16;5073021;28;20618;-71
2022/04/20 07:40:54;;;;;;;3.43;3.13;;;;;;;7.36;74.51;100612.03;5073307;28;20269;-71
2022/04/20 07:43:19;;;;;;;3.93;2.93;;;;;;;7.56;73.83;100616.50;5073003;28;20205;-70
2022/04/20 07:45:44;;;;;;;3.27;3.07;;;;;;;7.63;73.40;100607.97;5073098;28;20182;-70
2022/04/20 07:48:10;;;;;;;4.10;2.77;;;;;;;7.74;73.62;100606.78;5071822;28;20292;-74
2022/04/20 07:50:36;;;;;;;3.43;3.13;;;;;;;7.76;72.29;100615.47;5072760;28;20227;-72
2022/04/20 07:53:03;;;;;;;3.03;2.80;;;;;;;7.85;72.22;100630.06;5054660;28;20652;-70
2022/04/20 07:55:32;;;;;;;3.77;3.23;;;;;;;7.93;71.65;100636.75;5072477;28;20190;-71
2022/04/20 07:57:59;;;;;;;2.97;2.77;;;;;;;7.61;72.87;100637.38;5072623;28;20681;-70
2022/04/20 08:00:26;;;;;;;3.57;2.90;;;;;;;7.79;73.02;100642.06;5072672;28;20205;-71
2022/04/20 08:03:10;;;;;;;3.17;2.87;;;;;;;7.62;72.74;100631.63;5072803;28;20318;-70
2022/04/20 08:05:36;;;;;;;3.60;3.20;;;;;;;7.84;72.52;100630.34;5072721;28;20171;-70
2022/04/20 08:08:01;;;;;;;3.33;3.07;;;;;;;7.78;72.25;100631.50;5072477;28;20174;-75
2022/04/20 08:10:26;;;;;;;2.90;2.70;;;;;;;7.98;72.04;100623.13;5072297;28;20803;-71
2022/04/20 08:12:52;;;;;;;3.83;3.43;;;;;;;8.17;72.79;100634.84;5072634;28;20183;-71
2022/04/20 08:15:17;;;;;;;3.30;3.00;;;;;;;8.06;71.82;100630.63;5072416;28;20174;-71
2022/04/20 08:17:42;;;;;;;4.60;2.77;;;;;;;8.07;71.98;100629.53;5070382;28;20651;-70
2022/04/20 08:20:09;;;;;;;3.87;3.30;;;;;;;8.11;71.95;100636.03;5072026;28;20224;-70
2022/04/20 08:22:42;;;;;;;7.27;3.20;;;;;;;8.50;72.67;100643.19;5070987;28;20179;-71
2022/04/20 08:25:13;;;;;;;3.87;2.97;;;;;;;8.34;71.74;100639.84;5072025;28;20565;-70
2022/04/20 08:27:39;;;;;;;3.60;3.30;;;;;;;8.38;72.35;100646.31;5071940;28;20528;-71
2022/04/20 08:30:07;;;;;;;3.40;3.10;;;;;;;8.55;72.85;100649.38;5071944;28;20190;-70
2022/04/20 08:32:33;;;;;;;4.83;3.20;;;;;;;8.35;72.33;100650.44;5072039;28;20686;-70
2022/04/20 08:34:58;;;;;;;4.10;3.70;;;;;;;8.59;72.38;100653.16;5072007;28;20265;-71
2022/04/20 08:37:24;;;;;;;3.80;2.93;;;;;;;8.75;72.00;100651.00;5071892;28;20228;-71
2022/04/20 08:39:49;;;;;;;4.57;3.07;;;;;;;8.72;71.32;100653.53;5071944;28;20182;-71
2022/04/20 08:42:19;;;;;;;4.93;3.20;;;;;;;8.88;71.08;100653.00;5071962;28;20186;-71
2022/04/20 08:44:48;;;;;;;6.27;3.40;;;;;;;8.89;70.90;100657.34;5071614;28;20245;-72
2022/04/20 08:47:21;;;;;;;4.87;3.47;;;;;;;9.09;70.20;100652.69;5071581;28;20177;-71
2022/04/20 08:49:49;;;;;;;4.13;3.33;;;;;;;9.35;69.92;100644.94;5071561;28;20261;-71
2022/04/20 08:52:37;;;;;;;4.47;2.97;;;;;;;9.41;67.49;100646.47;5071469;28;20171;-72
2022/04/20 08:55:07;;;;;;;4.30;3.00;;;;;;;9.35;66.77;100643.00;5071472;28;20244;-72
2022/04/20 08:57:33;;;;;;;5.30;3.73;;;;;;;9.64;67.32;100644.69;5069629;28;20549;-72
2022/04/20 08:59:59;;;;;;;4.20;3.40;;;;;;;9.65;66.94;100643.59;5070088;28;20174;-71
2022/04/20 09:02:25;;;;;;;3.97;3.63;;;;;;;9.49;66.33;100635.66;5070928;28;20300;-71
2022/04/20 09:04:54;;;;;;;3.60;3.30;;;;;;;9.65;65.12;100638.13;5070979;28;20214;-71
2022/04/20 09:07:19;;;;;;;3.73;2.97;;;;;;;9.69;65.25;100637.25;5070793;28;20178;-70
2022/04/20 09:09:46;;;;;;;3.80;3.10;;;;;;;9.70;66.12;100636.13;5065296;28;20971;-73
2022/04/20 09:12:16;;;;;;;3.03;2.73;;;;;;;9.57;66.02;100636.13;5070488;28;20181;-71
2022/04/20 09:14:43;;;;;;;2.80;2.60;;;;;;;9.70;65.12;100627.97;5070809;28;20174;-71
2022/04/20 09:17:13;;;;;;;3.30;3.00;;;;;;;9.98;64.82;100628.78;5070747;28;20646;-72
2022/04/20 09:19:39;;;;;;;3.70;3.40;;;;;;;10.03;64.59;100625.94;5071187;28;20181;-70
2022/04/20 09:22:25;;;;;;;3.70;3.00;;;;;;;10.20;64.98;100625.34;5070900;28;20215;-71
2022/04/20 09:24:57;;;;;;;3.77;2.97;;;;;;;10.28;64.54;100634.78;5070885;28;20767;-71
2022/04/20 09:27:23;;;;;;;3.60;3.33;;;;;;;10.29;63.73;100630.94;5070564;28;20243;-72
2022/04/20 09:29:54;;;;;;;2.97;2.77;;;;;;;10.35;64.00;100630.50;5070407;28;20175;-70
2022/04/20 09:32:30;;;;;;;3.17;2.87;;;;;;;10.35;61.41;100627.78;5070688;28;20167;-71
2022/04/20 09:34:58;;;;;;;3.50;3.17;;;;;;;10.53;61.87;100628.75;5070302;28;20170;-72
2022/04/20 09:37:24;;;;;;;3.17;2.87;;;;;;;10.27;62.81;100624.94;5070380;28;20178;-72
2022/04/20 09:39:50;;;;;;;2.77;2.57;;;;;;;10.57;63.04;100620.78;5070315;28;20220;-71
2022/04/20 09:42:16;;;;;;;3.60;2.93;;;;;;;10.63;61.55;100625.81;5070305;28;20194;-70
2022/04/20 09:45:00;;;;;;;2.47;2.27;;;;;;;10.32;61.66;100624.84;5070419;28;20202;-71
2022/04/20 09:50:13;;;;;;;2.67;2.47;;;;;;;10.38;62.75;100618.97;5070346;28;20661;-71
2022/04/20 09:52:49;;;;;;;3.30;3.10;;;;;;;10.59;62.56;100624.00;5069961;28;20625;-72
2022/04/20 09:55:18;;;;;;;2.90;2.70;;;;;;;10.72;61.56;100618.53;5065930;28;20208;-71
2022/04/20 09:57:44;;;;;;;2.67;2.47;;;;;;;11.11;60.61;100622.50;5076746;28;20281;-71
2022/04/20 10:00:12;;;;;;;2.33;1.70;;;;;;;11.11;60.00;100619.78;5070123;28;20689;-70
2022/04/20 10:02:47;;;;;;;3.40;3.10;;;;;;;10.96;60.33;100610.00;5070332;28;20178;-73
2022/04/20 10:05:15;;;;;;;3.53;2.93;;;;;;;10.94;61.40;100601.31;5070151;28;20201;-71
2022/04/20 10:07:41;;;;;;;2.40;2.20;;;;;;;11.33;60.80;100599.84;5070230;28;20183;-72
2022/04/20 10:10:07;;;;;;;3.87;2.70;;;;;;;11.11;58.96;100606.09;5070348;28;20228;-71
2022/04/20 10:12:39;;;;;;;3.27;2.80;;;;;;;11.12;59.41;100613.19;5072921;28;20266;-71
2022/04/20 10:17:53;;;;;;;3.40;2.67;;;;;;;11.38;58.23;100604.34;5074442;28;20177;-70
2022/04/20 10:20:19;;;;;;;3.10;2.90;;;;;;;11.40;59.08;100604.84;5056219;28;20186;-71
2022/04/20 10:22:46;;;;;;;3.10;2.83;;;;;;;11.52;57.96;100599.59;5074396;28;20210;-74
2022/04/20 10:25:13;;;;;;;2.97;2.77;;;;;;;11.60;57.59;100596.94;5074342;28;20198;-70
2022/04/20 10:27:47;;;;;;;3.33;2.60;;;;;;;11.82;56.43;100600.75;5073632;28;20184;-73
2022/04/20 10:30:18;;;;;;;3.33;3.10;;;;;;;11.66;56.37;100588.56;5072192;28;20589;-73
2022/04/20 10:33:07;;;;;;;3.00;2.70;;;;;;;11.93;57.60;100593.88;5072762;28;20221;-71
2022/04/20 10:36:04;;;;;;;3.70;2.60;;;;;;;12.08;56.46;100595.38;5074118;28;20189;-73
2022/04/20 10:38:31;;;;;;;3.57;2.40;;;;;;;12.30;56.62;100598.03;5074025;28;20175;-70
2022/04/20 10:41:07;;;;;;;3.57;3.27;;;;;;;12.32;57.05;100586.75;5074049;28;20193;-71
2022/04/20 10:43:38;;;;;;;3.63;3.33;;;;;;;11.87;56.05;100576.78;5073591;28;20206;-71
2022/04/20 10:46:07;;;;;;;3.30;3.10;;;;;;;12.11;57.53;100572.81;5073901;28;20668;-70
2022/04/20 10:48:52;;;;;;;5.03;3.43;;;;;;;12.03;56.79;100579.09;5073690;28;20258;-71
2022/04/20 10:51:42;;;;;;;2.97;2.60;;;;;;;12.37;56.40;100573.69;5073826;28;20178;-71
2022/04/20 10:54:17;;;;;;;4.03;2.50;;;;;;;12.28;55.60;100569.31;5061657;28;20542;-71
2022/04/20 10:57:01;;;;;;;2.67;2.40;;;;;;;12.77;55.13;100560.66;5073636;28;20204;-71
2022/04/20 10:59:28;;;;;;;4.10;2.80;;;;;;;12.34;55.00;100557.91;5073400;28;20177;-71
2022/04/20 11:01:59;;;;;;;2.73;2.53;;;;;;;12.35;55.54;100554.03;5073430;28;20196;-71
2022/04/20 11:04:39;;;;;;;3.13;2.83;;;;;;;12.17;55.08;100547.72;5073358;28;20243;-71
2022/04/20 11:07:06;;;;;;;3.63;2.90;;;;;;;12.42;55.70;100553.53;5073041;28;20186;-71
2022/04/20 11:09:48;;;;;;;3.17;2.97;;;;;;;12.56;56.17;100545.97;5055764;28;20231;-71
2022/04/20 11:21:03;;;;;;;3.10;2.80;;;;;;;12.67;55.67;100527.28;5073162;28;20683;-72
2022/04/20 11:23:53;;;;;;;3.57;3.17;;;;;;;13.06;55.50;100529.81;5072019;28;20182;-72
2022/04/20 11:26:29;;;;;;;2.50;2.20;;;;;;;13.17;54.49;100526.75;5073142;28;20673;-72
2022/04/20 11:28:57;;;;;;;3.03;2.73;;;;;;;13.30;55.59;100529.28;5072510;28;20205;-71
2022/04/20 11:31:23;;;;;;;3.03;2.83;;;;;;;13.44;55.23;100525.53;5072946;28;20201;-71
2022/04/20 11:33:50;;;;;;;3.07;2.87;;;;;;;13.07;54.06;100528.69;5073043;28;20171;-71
2022/04/20 11:36:16;;;;;;;2.77;2.57;;;;;;;13.14;53.99;100524.63;5073167;28;20304;-71
2022/04/20 11:38:46;;;;;;;3.17;2.47;;;;;;;13.32;52.76;100521.56;5072701;28;20654;-71
2022/04/20 11:41:13;;;;;;;2.40;2.20;;;;;;;13.25;52.79;100515.75;5072836;28;20386;-71
2022/04/20 11:43:40;;;;;;;2.60;2.40;;;;;;;13.06;53.17;100523.53;5054960;28;20572;-71
2022/04/20 11:46:07;;;;;;;2.90;2.60;;;;;;;13.31;52.87;100514.47;5072788;28;20324;-71
2022/04/20 11:48:35;;;;;;;2.50;2.30;;;;;;;13.28;53.28;100511.53;5072300;28;20670;-71
2022/04/20 11:51:02;;;;;;;3.00;2.70;;;;;;;13.17;53.02;100515.75;5072704;28;20178;-71
2022/04/20 11:53:36;;;;;;;2.70;2.50;;;;;;;13.53;53.80;100512.59;5072899;28;20388;-71
2022/04/20 11:56:03;;;;;;;2.23;2.03;;;;;;;13.30;51.96;100504.59;5072565;28;20159;-72
2022/04/20 11:58:31;;;;;;;2.27;2.07;;;;;;;13.36;53.38;100510.72;5072580;28;20190;-70
2022/04/20 12:01:03;;;;;;;3.13;2.83;;;;;;;13.76;52.71;100505.72;5072336;28;20177;-71
2022/04/20 12:03:33;;;;;;;4.47;2.60;;;;;;;13.76;53.24;100511.19;5072279;28;20171;-71
2022/04/20 12:06:04;;;;;;;2.63;2.43;;;;;;;13.47;52.59;100502.94;5072457;28;20661;-71